createdAt,value
2024-03-14T00:00:44.636Z,100815.59
2024-03-14T00:03:15.597Z,100819.00
2024-03-14T00:05:44.414Z,100820.72
2024-03-14T00:08:13.034Z,100821.94
2024-03-14T00:10:41.767Z,100819.88
2024-03-14T00:13:13.925Z,100815.91
2024-03-14T00:15:43.483Z,100821.41
2024-03-14T00:18:11.992Z,100818.06
2024-03-14T00:20:44.056Z,100809.28
2024-03-14T00:23:15.281Z,100817.00
2024-03-14T00:25:43.966Z,100814.66
2024-03-14T00:28:14.144Z,100816.19
2024-03-14T00:30:42.654Z,100819.47
2024-03-14T00:33:15.768Z,100818.75
2024-03-14T00:35:45.272Z,100805.81
2024-03-14T00:38:13.713Z,100809.56
2024-03-14T00:40:42.426Z,100804.28
2024-03-14T00:43:14.840Z,100800.75
2024-03-14T00:45:43.480Z,100801.47
2024-03-14T00:48:12.696Z,100797.16
2024-03-14T00:50:42.577Z,100806.81
2024-03-14T00:53:12.342Z,100798.09
2024-03-14T00:55:42.518Z,100795.97
2024-03-14T00:58:14.640Z,100794.78
2024-03-14T01:00:43.221Z,100799.56
2024-03-14T01:03:13.561Z,100787.72
2024-03-14T01:05:41.969Z,100790.09
2024-03-14T01:08:12.072Z,100791.69
2024-03-14T01:10:41.695Z,100788.97
2024-03-14T01:13:10.184Z,100778.25
2024-03-14T01:15:38.829Z,100779.19
2024-03-14T01:18:08.248Z,100780.16
2024-03-14T01:20:39.710Z,100788.16
2024-03-14T01:23:08.687Z,100778.72
2024-03-14T01:25:43.170Z,100772.38
2024-03-14T01:28:12.125Z,100771.47
2024-03-14T01:30:43.561Z,100766.34
2024-03-14T01:33:12.126Z,100770.53
2024-03-14T01:35:40.822Z,100776.66
2024-03-14T01:38:09.364Z,100774.13
2024-03-14T01:40:38.014Z,100775.97
2024-03-14T01:43:07.050Z,100761.75
2024-03-14T01:45:36.975Z,100768.69
2024-03-14T01:48:08.743Z,100761.19
2024-03-14T01:50:42.865Z,100754.22
2024-03-14T01:53:11.388Z,100754.13
2024-03-14T01:55:40.191Z,100753.63
2024-03-14T01:58:11.579Z,100752.88
2024-03-14T02:00:41.165Z,100746.63
2024-03-14T02:03:10.055Z,100747.09
2024-03-14T02:05:41.972Z,100726.34
2024-03-14T02:08:11.840Z,100744.78
2024-03-14T02:13:14.284Z,100737.22
2024-03-14T02:15:45.531Z,100745.94
2024-03-14T02:18:20.234Z,100741.78
2024-03-14T02:20:49.562Z,100738.16
2024-03-14T02:23:25.833Z,100728.06
2024-03-14T02:25:55.914Z,100722.59
2024-03-14T02:28:31.584Z,100716.47
2024-03-14T02:31:05.213Z,100732.97
2024-03-14T02:33:41.190Z,100715.84
2024-03-14T02:36:19.865Z,100729.81
2024-03-14T02:38:48.985Z,100731.88
2024-03-14T02:41:17.939Z,100728.06
2024-03-14T02:43:52.139Z,100716.59
2024-03-14T02:46:23.636Z,100721.16
2024-03-14T02:48:58.003Z,100720.03
2024-03-14T02:51:31.305Z,100720.31
2024-03-14T02:54:06.769Z,100711.50
2024-03-14T02:56:36.164Z,100712.47
2024-03-14T02:59:25.473Z,100705.94
2024-03-14T03:02:02.877Z,100711.25
2024-03-14T03:04:43.740Z,100696.63
2024-03-14T03:07:28.186Z,100696.97
2024-03-14T03:10:26.560Z,100691.66
2024-03-14T03:12:58.105Z,100706.06
2024-03-14T03:15:26.670Z,100693.53
2024-03-14T03:17:55.264Z,100689.78
2024-03-14T03:20:23.917Z,100688.34
2024-03-14T03:23:08.839Z,100692.75
2024-03-14T03:25:36.334Z,100690.00
2024-03-14T03:28:05.788Z,100691.81
2024-03-14T03:30:33.905Z,100686.78
2024-03-14T03:33:02.583Z,100677.84
2024-03-14T03:35:30.003Z,100677.09
2024-03-14T03:37:59.321Z,100671.06
2024-03-14T03:40:31.318Z,100680.84
2024-03-14T03:43:00.016Z,100672.34
2024-03-14T03:45:28.427Z,100683.75
2024-03-14T03:47:57.369Z,100667.19
2024-03-14T03:50:28.914Z,100673.56
2024-03-14T03:52:57.739Z,100671.06
2024-03-14T03:55:26.383Z,100666.75
2024-03-14T03:57:55.160Z,100664.38
2024-03-14T04:00:34.705Z,100668.75
2024-03-14T04:03:10.029Z,100668.16
2024-03-14T04:05:39.523Z,100671.63
2024-03-14T04:08:07.319Z,100673.63
2024-03-14T04:10:35.694Z,100677.03
2024-03-14T04:13:06.712Z,100687.09
2024-03-14T04:15:36.082Z,100669.66
2024-03-14T04:18:07.238Z,100675.97
2024-03-14T04:20:39.181Z,100679.94
2024-03-14T04:23:08.366Z,100675.75
2024-03-14T04:25:37.964Z,100664.22
2024-03-14T04:28:08.994Z,100663.22
2024-03-14T04:30:38.559Z,100673.72
2024-03-14T04:33:09.747Z,100666.34
2024-03-14T04:35:38.413Z,100661.94
2024-03-14T04:38:08.016Z,100669.28
2024-03-14T04:40:36.567Z,100661.34
2024-03-14T04:43:06.384Z,100667.41
2024-03-14T04:45:34.853Z,100657.03
2024-03-14T04:48:07.366Z,100662.06
2024-03-14T04:50:37.894Z,100664.72
2024-03-14T04:53:07.280Z,100646.38
2024-03-14T04:55:35.667Z,100664.56
2024-03-14T04:58:05.152Z,100663.28
2024-03-14T05:00:34.458Z,100660.59
2024-03-14T05:03:05.472Z,100663.47
2024-03-14T05:05:34.103Z,100658.31
2024-03-14T05:08:02.566Z,100657.84
2024-03-14T05:10:40.511Z,100667.28
2024-03-14T05:13:11.919Z,100671.78
2024-03-14T05:15:40.648Z,100668.34
2024-03-14T05:18:09.462Z,100672.06
2024-03-14T05:20:37.899Z,100674.19
2024-03-14T05:23:06.577Z,100676.06
2024-03-14T05:25:36.189Z,100670.81
2024-03-14T05:28:07.754Z,100673.25
2024-03-14T05:30:39.176Z,100668.34
2024-03-14T05:33:07.851Z,100666.47
2024-03-14T05:35:36.606Z,100666.03
2024-03-14T05:38:05.751Z,100670.22
2024-03-14T05:40:34.825Z,100662.56
2024-03-14T05:43:04.302Z,100666.75
2024-03-14T05:45:35.893Z,100664.63
2024-03-14T05:48:10.610Z,100662.16
2024-03-14T05:50:39.658Z,100660.50
2024-03-14T05:53:08.303Z,100666.53
2024-03-14T05:55:37.437Z,100665.53
2024-03-14T05:58:06.649Z,100669.00
2024-03-14T06:00:35.860Z,100659.72
2024-03-14T06:03:04.864Z,100663.94
2024-03-14T06:05:33.399Z,100655.50
2024-03-14T06:08:01.835Z,100661.00
2024-03-14T06:10:30.225Z,100663.00
2024-03-14T06:12:59.004Z,100661.63
2024-03-14T06:15:27.510Z,100662.28
2024-03-14T06:17:56.040Z,100661.47
2024-03-14T06:20:26.357Z,100666.22
2024-03-14T06:22:55.124Z,100666.81
2024-03-14T06:25:23.666Z,100669.41
2024-03-14T06:27:53.643Z,100670.22
2024-03-14T06:30:25.061Z,100672.16
2024-03-14T06:32:54.635Z,100669.00
2024-03-14T06:35:25.013Z,100657.84
2024-03-14T06:37:53.822Z,100666.66
2024-03-14T06:40:25.081Z,100674.78
2024-03-14T06:42:54.793Z,100672.09
2024-03-14T06:45:24.137Z,100672.09
2024-03-14T06:47:52.925Z,100670.69
2024-03-14T06:50:21.453Z,100672.88
2024-03-14T06:52:50.292Z,100683.75
2024-03-14T06:55:18.632Z,100675.44
2024-03-14T06:57:47.301Z,100673.78
2024-03-14T07:00:19.249Z,100677.69
2024-03-14T07:02:49.908Z,100681.16
2024-03-14T07:05:18.597Z,100679.91
2024-03-14T07:07:47.361Z,100674.97
2024-03-14T07:10:16.874Z,100682.88
2024-03-14T07:12:47.799Z,100688.78
2024-03-14T07:15:19.329Z,100679.84
2024-03-14T07:17:48.426Z,100695.56
2024-03-14T07:20:26.001Z,100696.13
2024-03-14T07:22:54.724Z,100686.88
2024-03-14T07:25:22.533Z,100696.19
2024-03-14T07:27:53.468Z,100696.06
2024-03-14T07:30:26.212Z,100686.81
2024-03-14T07:32:55.910Z,100692.59
2024-03-14T07:35:24.647Z,100690.09
2024-03-14T07:38:00.430Z,100695.69
2024-03-14T07:40:34.787Z,100702.06
2024-03-14T07:43:06.953Z,100696.84
2024-03-14T07:45:37.667Z,100697.31
2024-03-14T07:48:06.422Z,100698.91
2024-03-14T07:50:34.824Z,100696.38
2024-03-14T07:53:03.244Z,100694.81
2024-03-14T07:55:31.868Z,100688.47
2024-03-14T07:58:00.305Z,100687.31
2024-03-14T08:00:33.056Z,100684.75
2024-03-14T08:03:04.931Z,100691.59
2024-03-14T08:05:35.513Z,100693.47
2024-03-14T08:08:14.603Z,100692.59
2024-03-14T08:10:49.597Z,100682.94
2024-03-14T08:13:23.378Z,100683.94
2024-03-14T08:15:56.630Z,100695.88
2024-03-14T08:18:26.074Z,100700.28
2024-03-14T08:20:57.861Z,100689.72
2024-03-14T08:23:30.249Z,100699.22
2024-03-14T08:25:58.942Z,100700.38
2024-03-14T08:28:27.774Z,100697.28
2024-03-14T08:30:56.493Z,100705.03
2024-03-14T08:33:25.859Z,100696.03
2024-03-14T08:35:55.351Z,100695.44
2024-03-14T08:38:24.424Z,100710.53
2024-03-14T08:40:53.241Z,100709.25
2024-03-14T08:43:22.510Z,100704.59
2024-03-14T08:45:52.690Z,100702.34
2024-03-14T08:48:22.889Z,100702.28
2024-03-14T08:50:52.092Z,100714.69
2024-03-14T08:53:20.784Z,100705.69
2024-03-14T08:55:56.062Z,100705.88
2024-03-14T08:58:26.887Z,100714.59
2024-03-14T09:00:55.969Z,100712.34
2024-03-14T09:03:25.071Z,100699.50
2024-03-14T09:05:54.689Z,100699.97
2024-03-14T09:08:37.989Z,100700.81
2024-03-14T09:11:06.478Z,100695.09
2024-03-14T09:13:36.152Z,100676.50
2024-03-14T09:16:05.480Z,100698.19
2024-03-14T09:18:34.279Z,100698.75
2024-03-14T09:21:02.872Z,100705.00
2024-03-14T09:23:31.317Z,100701.22
2024-03-14T09:26:00.459Z,100698.53
2024-03-14T09:28:29.429Z,100685.47
2024-03-14T09:31:01.163Z,100687.44
2024-03-14T09:33:33.350Z,100687.56
2024-03-14T09:36:05.648Z,100681.44
2024-03-14T09:38:34.472Z,100687.28
2024-03-14T09:41:09.674Z,100679.50
2024-03-14T09:43:46.182Z,100662.78
2024-03-14T09:46:14.814Z,100664.63
2024-03-14T09:48:43.263Z,100670.16
2024-03-14T09:51:12.761Z,100668.56
2024-03-14T09:53:41.335Z,100664.06
2024-03-14T09:56:12.421Z,100667.28
2024-03-14T09:58:41.031Z,100662.94
2024-03-14T10:01:11.370Z,100663.09
2024-03-14T10:03:41.398Z,100656.94
2024-03-14T10:06:17.396Z,100655.47
2024-03-14T10:08:52.217Z,100655.59
2024-03-14T10:11:21.684Z,100650.38
2024-03-14T10:13:51.826Z,100642.63
2024-03-14T10:16:23.561Z,100641.56
2024-03-14T10:18:53.064Z,100639.25
2024-03-14T10:21:21.961Z,100642.94
2024-03-14T10:23:50.816Z,100639.41
2024-03-14T10:26:19.203Z,100648.66
2024-03-14T10:28:47.811Z,100642.38
2024-03-14T10:31:16.499Z,100636.38
2024-03-14T10:33:45.077Z,100639.50
2024-03-14T10:36:14.721Z,100623.84
2024-03-14T10:38:45.340Z,100639.66
2024-03-14T10:41:21.458Z,100638.31
2024-03-14T10:43:50.888Z,100628.00
2024-03-14T10:46:20.605Z,100624.56
2024-03-14T10:48:50.492Z,100629.75
2024-03-14T10:51:19.174Z,100629.25
2024-03-14T10:53:47.741Z,100627.81
2024-03-14T10:56:17.310Z,100619.16
2024-03-14T10:58:46.003Z,100619.72
2024-03-14T11:01:15.200Z,100619.56
2024-03-14T11:03:44.164Z,100612.63
2024-03-14T11:06:15.209Z,100616.34
2024-03-14T11:08:46.737Z,100622.66
2024-03-14T11:11:15.586Z,100614.94
2024-03-14T11:13:45.673Z,100609.91
2024-03-14T11:16:15.525Z,100623.84
2024-03-14T11:18:44.009Z,100610.38
2024-03-14T11:21:13.728Z,100621.16
2024-03-14T11:23:43.171Z,100611.28
2024-03-14T11:26:13.979Z,100608.88
2024-03-14T11:28:42.440Z,100610.56
2024-03-14T11:31:10.983Z,100600.16
2024-03-14T11:33:42.145Z,100602.16
2024-03-14T11:36:11.917Z,100608.22
2024-03-14T11:38:40.493Z,100607.00
2024-03-14T11:41:15.342Z,100605.00
2024-03-14T11:43:46.371Z,100598.28
2024-03-14T11:46:16.284Z,100598.72
2024-03-14T11:48:46.583Z,100596.31
2024-03-14T11:51:20.034Z,100595.31
2024-03-14T11:53:52.563Z,100586.81
2024-03-14T11:56:21.139Z,100582.47
2024-03-14T11:58:52.223Z,100576.59
2024-03-14T12:01:28.100Z,100566.69
2024-03-14T12:04:01.112Z,100568.25
2024-03-14T12:06:29.834Z,100559.31
2024-03-14T12:08:58.785Z,100564.97
2024-03-14T12:11:27.515Z,100570.38
2024-03-14T12:13:56.041Z,100559.88
2024-03-14T12:16:24.534Z,100547.19
2024-03-14T12:18:53.810Z,100543.13
2024-03-14T12:21:24.460Z,100545.47
2024-03-14T12:23:56.656Z,100533.47
2024-03-14T12:26:25.495Z,100539.72
2024-03-14T12:28:56.123Z,100544.81
2024-03-14T12:31:24.673Z,100548.75
2024-03-14T12:33:53.434Z,100533.59
2024-03-14T12:36:23.256Z,100537.84
2024-03-14T12:38:53.046Z,100522.38
2024-03-14T12:41:21.978Z,100523.69
2024-03-14T12:43:50.494Z,100517.78
2024-03-14T12:46:21.550Z,100523.28
2024-03-14T12:48:50.902Z,100526.16
2024-03-14T12:51:20.792Z,100523.59
2024-03-14T12:53:57.121Z,100513.59
2024-03-14T12:56:26.589Z,100513.13
2024-03-14T12:58:59.233Z,100504.41
2024-03-14T13:01:31.231Z,100508.31
2024-03-14T13:04:01.330Z,100499.84
2024-03-14T13:06:31.307Z,100496.09
2024-03-14T13:09:17.014Z,100497.13
2024-03-14T13:12:05.282Z,100498.59
2024-03-14T13:14:34.231Z,100493.75
2024-03-14T13:17:07.811Z,100487.19
2024-03-14T13:19:37.037Z,100474.94
2024-03-14T13:22:06.481Z,100466.38
2024-03-14T13:24:35.683Z,100471.81
2024-03-14T13:27:06.202Z,100472.72
2024-03-14T13:29:35.821Z,100480.31
2024-03-14T13:32:05.197Z,100477.16
2024-03-14T13:34:34.579Z,100480.06
2024-03-14T13:37:04.338Z,100478.91
2024-03-14T13:39:37.995Z,100474.84
2024-03-14T13:42:08.237Z,100468.00
2024-03-14T13:44:39.012Z,100475.81
2024-03-14T13:47:16.785Z,100473.66
2024-03-14T13:49:46.790Z,100477.88
2024-03-14T13:52:15.410Z,100456.50
2024-03-14T13:54:46.566Z,100456.97
2024-03-14T13:57:16.183Z,100459.38
2024-03-14T13:59:49.022Z,100466.47
2024-03-14T14:02:18.856Z,100429.31
2024-03-14T14:04:47.821Z,100456.06
2024-03-14T14:07:16.455Z,100452.34
2024-03-14T14:09:45.302Z,100439.19
2024-03-14T14:12:15.199Z,100426.75
2024-03-14T14:14:43.883Z,100438.03
2024-03-14T14:17:12.865Z,100434.13
2024-03-14T14:19:42.584Z,100428.28
2024-03-14T14:22:13.422Z,100434.13
2024-03-14T14:24:43.631Z,100427.09
2024-03-14T14:27:12.289Z,100434.41
2024-03-14T14:29:41.070Z,100425.47
2024-03-14T14:32:09.564Z,100416.56
2024-03-14T14:34:39.423Z,100408.50
2024-03-14T14:37:08.050Z,100406.44
2024-03-14T14:39:38.866Z,100410.44
2024-03-14T14:42:09.754Z,100409.69
2024-03-14T14:44:38.177Z,100404.72
2024-03-14T14:47:11.524Z,100385.59
2024-03-14T14:49:40.757Z,100406.91
2024-03-14T14:52:09.469Z,100398.88
2024-03-14T14:54:39.503Z,100386.09
2024-03-14T14:57:08.172Z,100384.91
2024-03-14T14:59:40.592Z,100383.69
2024-03-14T15:02:10.481Z,100378.88
2024-03-14T15:04:40.094Z,100395.44
2024-03-14T15:07:17.074Z,100387.50
2024-03-14T15:09:46.236Z,100369.63
2024-03-14T15:12:15.230Z,100378.47
2024-03-14T15:14:44.730Z,100379.44
2024-03-14T15:17:17.564Z,100375.81
2024-03-14T15:19:47.302Z,100379.09
2024-03-14T15:22:16.163Z,100376.59
2024-03-14T15:24:45.019Z,100377.97
2024-03-14T15:27:13.877Z,100364.00
2024-03-14T15:29:42.623Z,100373.31
2024-03-14T15:32:15.072Z,100366.22
2024-03-14T15:34:47.997Z,100364.50
2024-03-14T15:37:17.304Z,100363.03
2024-03-14T15:39:46.441Z,100360.81
2024-03-14T15:42:18.063Z,100357.25
2024-03-14T15:44:46.697Z,100345.78
2024-03-14T15:47:15.056Z,100363.16
2024-03-14T15:49:43.935Z,100346.38
2024-03-14T15:52:17.626Z,100353.69
2024-03-14T15:54:47.122Z,100349.22
2024-03-14T15:57:16.801Z,100339.72
2024-03-14T15:59:47.690Z,100332.97
2024-03-14T16:02:16.340Z,100335.19
2024-03-14T16:04:46.892Z,100332.31
2024-03-14T16:07:15.439Z,100332.16
2024-03-14T16:09:45.102Z,100324.63
2024-03-14T16:12:14.198Z,100326.34
2024-03-14T16:14:46.918Z,100332.31
2024-03-14T16:17:16.656Z,100319.72
2024-03-14T16:19:45.066Z,100315.28
2024-03-14T16:22:14.589Z,100322.41
2024-03-14T16:24:44.774Z,100327.50
2024-03-14T16:27:14.194Z,100313.75
2024-03-14T16:29:42.901Z,100316.72
2024-03-14T16:32:11.488Z,100317.13
2024-03-14T16:34:39.936Z,100310.50
2024-03-14T16:37:08.400Z,100301.94
2024-03-14T16:39:37.833Z,100304.34
2024-03-14T16:42:06.920Z,100300.19
2024-03-14T16:44:38.585Z,100309.53
2024-03-14T16:47:07.163Z,100308.44
2024-03-14T16:49:36.372Z,100312.53
2024-03-14T16:52:05.974Z,100309.25
2024-03-14T16:54:34.513Z,100316.84
2024-03-14T16:57:03.571Z,100312.91
2024-03-14T16:59:32.049Z,100309.66
2024-03-14T17:02:00.722Z,100317.41
2024-03-14T17:04:30.172Z,100303.47
2024-03-14T17:06:58.545Z,100302.22
2024-03-14T17:09:27.242Z,100311.88
2024-03-14T17:11:55.788Z,100307.06
2024-03-14T17:14:24.231Z,100301.84
2024-03-14T17:16:58.607Z,100300.88
2024-03-14T17:19:33.563Z,100304.31
2024-03-14T17:22:02.142Z,100298.00
2024-03-14T17:24:34.172Z,100297.16
2024-03-14T17:27:02.834Z,100300.03
2024-03-14T17:29:36.189Z,100304.66
2024-03-14T17:32:04.600Z,100311.84
2024-03-14T17:34:33.687Z,100306.44
2024-03-14T17:37:02.568Z,100310.44
2024-03-14T17:39:32.481Z,100314.28
2024-03-14T17:42:02.351Z,100309.16
2024-03-14T17:44:30.993Z,100319.47
2024-03-14T17:47:00.553Z,100315.81
2024-03-14T17:49:33.117Z,100315.16
2024-03-14T17:52:05.241Z,100306.34
2024-03-14T17:55:11.384Z,100312.53
2024-03-14T17:57:42.516Z,100306.81
2024-03-14T18:00:12.382Z,100310.16
2024-03-14T18:02:44.257Z,100312.53
2024-03-14T18:05:14.216Z,100304.47
2024-03-14T18:07:45.347Z,100313.47
2024-03-14T18:10:15.488Z,100316.38
2024-03-14T18:12:44.397Z,100317.66
2024-03-14T18:15:14.932Z,100316.69
2024-03-14T18:17:44.242Z,100310.97
2024-03-14T18:20:16.140Z,100308.75
2024-03-14T18:22:45.930Z,100310.88
2024-03-14T18:25:18.990Z,100311.75
2024-03-14T18:27:50.119Z,100310.47
2024-03-14T18:30:21.733Z,100307.97
2024-03-14T18:32:52.385Z,100306.47
2024-03-14T18:35:23.574Z,100311.66
2024-03-14T18:37:53.448Z,100309.59
2024-03-14T18:40:27.606Z,100303.69
2024-03-14T18:42:58.951Z,100295.66
2024-03-14T18:45:28.946Z,100301.97
2024-03-14T18:47:59.621Z,100288.72
2024-03-14T18:50:28.405Z,100288.09
2024-03-14T18:52:56.868Z,100287.53
2024-03-14T18:55:25.357Z,100284.88
2024-03-14T18:57:54.273Z,100278.19
2024-03-14T19:00:26.904Z,100284.28
2024-03-14T19:02:57.223Z,100283.25
2024-03-14T19:05:29.494Z,100293.41
2024-03-14T19:08:00.966Z,100273.06
2024-03-14T19:10:32.040Z,100281.75
2024-03-14T19:13:04.291Z,100287.25
2024-03-14T19:15:34.340Z,100282.13
2024-03-14T19:18:03.368Z,100269.44
2024-03-14T19:20:32.033Z,100277.09
2024-03-14T19:23:03.039Z,100278.41
2024-03-14T19:25:32.296Z,100271.25
2024-03-14T19:28:00.791Z,100269.84
2024-03-14T19:30:30.387Z,100270.69
2024-03-14T19:32:59.878Z,100272.13
2024-03-14T19:35:29.297Z,100274.97
2024-03-14T19:37:57.754Z,100275.16
2024-03-14T19:40:26.649Z,100275.53
2024-03-14T19:42:55.960Z,100267.88
2024-03-14T19:45:24.587Z,100272.38
2024-03-14T19:47:53.435Z,100261.75
2024-03-14T19:50:24.193Z,100272.53
2024-03-14T19:52:52.748Z,100270.00
2024-03-14T19:55:21.216Z,100259.38
2024-03-14T19:57:50.923Z,100267.09
2024-03-14T20:00:21.703Z,100259.31
2024-03-14T20:02:50.242Z,100261.22
2024-03-14T20:05:18.688Z,100253.56
2024-03-14T20:07:48.278Z,100243.44
2024-03-14T20:10:17.791Z,100251.75
2024-03-14T20:12:46.673Z,100253.88
2024-03-14T20:15:18.999Z,100245.56
2024-03-14T20:17:48.021Z,100253.38
2024-03-14T20:20:17.129Z,100257.13
2024-03-14T20:22:45.916Z,100252.72
2024-03-14T20:25:14.633Z,100246.91
2024-03-14T20:27:43.270Z,100252.91
2024-03-14T20:30:14.097Z,100247.66
2024-03-14T20:32:43.140Z,100250.13
2024-03-14T20:35:12.813Z,100247.84
2024-03-14T20:37:41.495Z,100246.59
2024-03-14T20:40:13.196Z,100245.94
2024-03-14T20:42:43.225Z,100243.66
2024-03-14T20:45:15.173Z,100241.25
2024-03-14T20:47:44.050Z,100236.84
2024-03-14T20:50:13.106Z,100242.88
2024-03-14T20:52:41.902Z,100245.38
2024-03-14T20:55:22.221Z,100228.97
2024-03-14T20:57:52.433Z,100235.09
2024-03-14T21:00:27.122Z,100231.06
2024-03-14T21:02:55.935Z,100231.34
2024-03-14T21:05:26.672Z,100234.41
2024-03-14T21:07:55.781Z,100242.72
2024-03-14T21:10:27.919Z,100237.56
2024-03-14T21:12:56.491Z,100241.19
2024-03-14T21:15:25.155Z,100235.38
2024-03-14T21:17:53.596Z,100234.03
2024-03-14T21:20:25.305Z,100235.06
2024-03-14T21:22:54.459Z,100240.63
2024-03-14T21:25:23.058Z,100237.72
2024-03-14T21:27:52.235Z,100236.63
2024-03-14T21:30:21.186Z,100234.88
2024-03-14T21:32:50.310Z,100239.06
2024-03-14T21:35:24.244Z,100232.78
2024-03-14T21:37:54.565Z,100228.97
2024-03-14T21:40:25.096Z,100233.69
2024-03-14T21:42:53.980Z,100229.41
2024-03-14T21:45:22.533Z,100224.06
2024-03-14T21:47:51.153Z,100225.09
2024-03-14T21:50:19.840Z,100227.97
2024-03-14T21:52:48.435Z,100229.50
2024-03-14T21:55:18.440Z,100235.88
2024-03-14T21:57:49.997Z,100235.34
2024-03-14T22:00:20.238Z,100226.84
2024-03-14T22:02:51.217Z,100223.22
2024-03-14T22:05:21.266Z,100221.75
2024-03-14T22:07:50.141Z,100217.72
2024-03-14T22:10:18.630Z,100220.34
2024-03-14T22:12:47.371Z,100213.38
2024-03-14T22:15:16.044Z,100212.06
2024-03-14T22:17:45.850Z,100207.69
2024-03-14T22:20:20.810Z,100209.03
2024-03-14T22:22:50.392Z,100210.94
2024-03-14T22:25:19.119Z,100198.34
2024-03-14T22:27:48.053Z,100201.63
2024-03-14T22:30:17.192Z,100205.59
2024-03-14T22:32:47.316Z,100198.72
2024-03-14T22:35:16.503Z,100196.44
2024-03-14T22:37:44.924Z,100191.09
2024-03-14T22:40:13.358Z,100184.25
2024-03-14T22:42:42.508Z,100185.72
2024-03-14T22:45:12.004Z,100179.44
2024-03-14T22:47:40.639Z,100172.78
2024-03-14T22:50:10.138Z,100187.00
2024-03-14T22:52:39.876Z,100172.59
2024-03-14T22:55:13.277Z,100188.91
2024-03-14T22:57:42.478Z,100184.38
2024-03-14T23:00:20.439Z,100174.31
2024-03-14T23:02:48.975Z,100174.19
2024-03-14T23:05:21.954Z,100171.91
2024-03-14T23:07:50.843Z,100154.28
2024-03-14T23:10:19.976Z,100159.50
2024-03-14T23:12:48.606Z,100156.50
2024-03-14T23:15:17.111Z,100158.09
2024-03-14T23:17:47.336Z,100161.91
2024-03-14T23:20:19.310Z,100147.63
2024-03-14T23:22:48.296Z,100147.41
2024-03-14T23:25:16.933Z,100140.56
2024-03-14T23:27:45.470Z,100145.91
2024-03-14T23:30:14.622Z,100148.28
2024-03-14T23:32:47.366Z,100142.28
2024-03-14T23:35:16.386Z,100146.06
2024-03-14T23:37:46.612Z,100135.59
2024-03-14T23:40:15.114Z,100143.72
2024-03-14T23:42:45.609Z,100147.69
2024-03-14T23:45:14.637Z,100143.19
2024-03-14T23:47:45.260Z,100134.34
2024-03-14T23:50:18.795Z,100136.13
2024-03-14T23:52:48.867Z,100142.81
2024-03-14T23:55:18.189Z,100138.44
2024-03-14T23:57:46.677Z,100139.22
